sensor_id;sensor_type;location;lat;lon;timestamp;temperature;humidity
9915;DHT22;4996;48.746;9.174;2023-04-07T00:02:06;7.70;99.90
9915;DHT22;4996;48.746;9.174;2023-04-07T00:04:32;7.70;99.90
9915;DHT22;4996;48.746;9.174;2023-04-07T00:06:57;7.60;99.90
9915;DHT22;4996;48.746;9.174;2023-04-07T00:09:23;7.60;99.90
9915;DHT22;4996;48.746;9.174;2023-04-07T00:11:48;7.80;99.90
9915;DHT22;4996;48.746;9.174;2023-04-07T00:14:16;7.70;99.90
9915;DHT22;4996;48.746;9.174;2023-04-07T00:16:41;7.60;99.90
9915;DHT22;4996;48.746;9.174;2023-04-07T00:19:07;7.60;99.90
9915;DHT22;4996;48.746;9.174;2023-04-07T00:21:32;7.60;99.90
9915;DHT22;4996;48.746;9.174;2023-04-07T00:23:58;7.60;99.90
9915;DHT22;4996;48.746;9.174;2023-04-07T00:26:23;7.50;99.90
9915;DHT22;4996;48.746;9.174;2023-04-07T00:28:51;7.50;99.90
9915;DHT22;4996;48.746;9.174;2023-04-07T00:31:17;7.60;99.90
9915;DHT22;4996;48.746;9.174;2023-04-07T00:33:42;7.50;99.90
9915;DHT22;4996;48.746;9.174;2023-04-07T00:36:08;7.60;99.90
9915;DHT22;4996;48.746;9.174;2023-04-07T00:38:33;7.60;99.90
9915;DHT22;4996;48.746;9.174;2023-04-07T00:40:59;7.60;99.90
9915;DHT22;4996;48.746;9.174;2023-04-07T00:43:25;7.60;99.90
9915;DHT22;4996;48.746;9.174;2023-04-07T00:45:51;7.60;99.90
9915;DHT22;4996;48.746;9.174;2023-04-07T00:48:17;7.60;99.90
9915;DHT22;4996;48.746;9.174;2023-04-07T00:50:44;7.60;99.90
9915;DHT22;4996;48.746;9.174;2023-04-07T00:53:11;7.50;99.90
9915;DHT22;4996;48.746;9.174;2023-04-07T00:55:36;7.30;99.90
9915;DHT22;4996;48.746;9.174;2023-04-07T00:58:02;7.40;99.90
9915;DHT22;4996;48.746;9.174;2023-04-07T01:00:31;7.60;99.90
9915;DHT22;4996;48.746;9.174;2023-04-07T01:03:00;7.70;99.90
9915;DHT22;4996;48.746;9.174;2023-04-07T01:08:24;7.70;99.90
9915;DHT22;4996;48.746;9.174;2023-04-07T01:10:55;7.70;99.90
9915;DHT22;4996;48.746;9.174;2023-04-07T01:13:35;7.80;99.90
9915;DHT22;4996;48.746;9.174;2023-04-07T01:16:04;7.80;99.90
9915;DHT22;4996;48.746;9.174;2023-04-07T01:18:32;7.70;99.90
9915;DHT22;4996;48.746;9.174;2023-04-07T01:21:05;7.70;99.90
9915;DHT22;4996;48.746;9.174;2023-04-07T01:26:23;7.70;99.90
9915;DHT22;4996;48.746;9.174;2023-04-07T01:31:41;7.60;99.90
9915;DHT22;4996;48.746;9.174;2023-04-07T01:34:09;7.70;99.90
9915;DHT22;4996;48.746;9.174;2023-04-07T01:36:35;7.70;99.90
9915;DHT22;4996;48.746;9.174;2023-04-07T01:39:01;7.60;99.90
9915;DHT22;4996;48.746;9.174;2023-04-07T01:41:27;7.70;99.90
9915;DHT22;4996;48.746;9.174;2023-04-07T01:43:54;7.70;99.90
9915;DHT22;4996;48.746;9.174;2023-04-07T01:46:20;7.70;99.90
9915;DHT22;4996;48.746;9.174;2023-04-07T01:48:47;7.70;99.90
9915;DHT22;4996;48.746;9.174;2023-04-07T01:51:13;7.70;99.90
9915;DHT22;4996;48.746;9.174;2023-04-07T01:53:44;7.70;99.90
9915;DHT22;4996;48.746;9.174;2023-04-07T01:56:10;7.80;99.90
9915;DHT22;4996;48.746;9.174;2023-04-07T01:58:36;7.90;99.90
9915;DHT22;4996;48.746;9.174;2023-04-07T02:01:01;7.90;99.90
9915;DHT22;4996;48.746;9.174;2023-04-07T02:03:39;7.90;99.90
9915;DHT22;4996;48.746;9.174;2023-04-07T02:06:06;8.00;99.90
9915;DHT22;4996;48.746;9.174;2023-04-07T02:08:32;8.00;99.90
9915;DHT22;4996;48.746;9.174;2023-04-07T02:11:00;8.00;99.90
9915;DHT22;4996;48.746;9.174;2023-04-07T02:13:28;8.00;99.90
9915;DHT22;4996;48.746;9.174;2023-04-07T02:15:55;8.00;99.90
9915;DHT22;4996;48.746;9.174;2023-04-07T02:18:22;8.00;99.90
9915;DHT22;4996;48.746;9.174;2023-04-07T02:20:51;8.00;99.90
9915;DHT22;4996;48.746;9.174;2023-04-07T02:23:17;8.00;99.90
9915;DHT22;4996;48.746;9.174;2023-04-07T02:25:42;8.00;99.90
9915;DHT22;4996;48.746;9.174;2023-04-07T02:28:08;8.00;99.90
9915;DHT22;4996;48.746;9.174;2023-04-07T02:30:34;7.90;99.90
9915;DHT22;4996;48.746;9.174;2023-04-07T02:33:00;8.00;99.90
9915;DHT22;4996;48.746;9.174;2023-04-07T02:35:26;8.10;99.90
9915;DHT22;4996;48.746;9.174;2023-04-07T02:37:52;8.10;99.90
9915;DHT22;4996;48.746;9.174;2023-04-07T02:40:17;8.10;99.90
9915;DHT22;4996;48.746;9.174;2023-04-07T02:42:43;8.10;99.90
9915;DHT22;4996;48.746;9.174;2023-04-07T02:45:09;8.00;99.90
9915;DHT22;4996;48.746;9.174;2023-04-07T02:47:36;8.10;99.90
9915;DHT22;4996;48.746;9.174;2023-04-07T02:50:02;8.10;99.90
9915;DHT22;4996;48.746;9.174;2023-04-07T02:52:27;8.20;99.90
9915;DHT22;4996;48.746;9.174;2023-04-07T02:54:53;8.20;99.90
9915;DHT22;4996;48.746;9.174;2023-04-07T02:57:19;8.40;99.90
9915;DHT22;4996;48.746;9.174;2023-04-07T02:59:44;8.20;99.90
9915;DHT22;4996;48.746;9.174;2023-04-07T03:02:10;8.20;99.90
9915;DHT22;4996;48.746;9.174;2023-04-07T03:04:36;8.20;99.90
9915;DHT22;4996;48.746;9.174;2023-04-07T03:07:01;8.20;99.90
9915;DHT22;4996;48.746;9.174;2023-04-07T03:09:27;8.20;99.90
9915;DHT22;4996;48.746;9.174;2023-04-07T03:11:52;8.20;99.90
9915;DHT22;4996;48.746;9.174;2023-04-07T03:14:18;8.20;99.90
9915;DHT22;4996;48.746;9.174;2023-04-07T03:16:44;8.20;99.90
9915;DHT22;4996;48.746;9.174;2023-04-07T03:19:09;8.20;99.90
9915;DHT22;4996;48.746;9.174;2023-04-07T03:21:36;8.20;99.90
9915;DHT22;4996;48.746;9.174;2023-04-07T03:24:03;8.20;99.90
9915;DHT22;4996;48.746;9.174;2023-04-07T03:26:28;8.30;99.90
9915;DHT22;4996;48.746;9.174;2023-04-07T03:28:54;8.30;99.90
9915;DHT22;4996;48.746;9.174;2023-04-07T03:31:20;8.20;99.90
9915;DHT22;4996;48.746;9.174;2023-04-07T03:33:45;8.20;99.90
9915;DHT22;4996;48.746;9.174;2023-04-07T03:36:11;8.20;99.90
9915;DHT22;4996;48.746;9.174;2023-04-07T03:38:36;8.20;99.90
9915;DHT22;4996;48.746;9.174;2023-04-07T03:41:02;8.20;99.90
9915;DHT22;4996;48.746;9.174;2023-04-07T03:43:27;8.30;99.90
9915;DHT22;4996;48.746;9.174;2023-04-07T03:45:54;8.30;99.90
9915;DHT22;4996;48.746;9.174;2023-04-07T03:48:20;8.30;99.90
9915;DHT22;4996;48.746;9.174;2023-04-07T03:50:46;8.30;99.90
9915;DHT22;4996;48.746;9.174;2023-04-07T03:53:11;8.30;99.90
9915;DHT22;4996;48.746;9.174;2023-04-07T03:55:41;8.30;99.90
9915;DHT22;4996;48.746;9.174;2023-04-07T03:58:07;8.30;99.90
9915;DHT22;4996;48.746;9.174;2023-04-07T04:00:33;8.40;99.90
9915;DHT22;4996;48.746;9.174;2023-04-07T04:02:59;8.40;99.90
9915;DHT22;4996;48.746;9.174;2023-04-07T04:05:25;8.40;99.90
9915;DHT22;4996;48.746;9.174;2023-04-07T04:07:50;8.30;99.90
9915;DHT22;4996;48.746;9.174;2023-04-07T04:10:17;8.30;99.90
9915;DHT22;4996;48.746;9.174;2023-04-07T04:12:43;8.20;99.90
9915;DHT22;4996;48.746;9.174;2023-04-07T04:15:09;8.20;99.90
9915;DHT22;4996;48.746;9.174;2023-04-07T04:17:35;8.20;99.90
9915;DHT22;4996;48.746;9.174;2023-04-07T04:20:01;8.10;99.90
9915;DHT22;4996;48.746;9.174;2023-04-07T04:22:26;8.20;99.90
9915;DHT22;4996;48.746;9.174;2023-04-07T04:24:52;8.20;99.90
9915;DHT22;4996;48.746;9.174;2023-04-07T04:27:17;8.20;99.90
9915;DHT22;4996;48.746;9.174;2023-04-07T04:29:43;8.20;99.90
9915;DHT22;4996;48.746;9.174;2023-04-07T04:32:08;8.40;99.90
9915;DHT22;4996;48.746;9.174;2023-04-07T04:34:34;8.40;99.90
9915;DHT22;4996;48.746;9.174;2023-04-07T04:36:59;8.40;99.90
9915;DHT22;4996;48.746;9.174;2023-04-07T04:39:25;8.40;99.90
9915;DHT22;4996;48.746;9.174;2023-04-07T04:41:50;8.40;99.90
9915;DHT22;4996;48.746;9.174;2023-04-07T04:44:16;8.40;99.90
9915;DHT22;4996;48.746;9.174;2023-04-07T04:46:41;8.40;99.90
9915;DHT22;4996;48.746;9.174;2023-04-07T04:49:07;8.40;99.90
9915;DHT22;4996;48.746;9.174;2023-04-07T04:51:32;8.40;99.90
9915;DHT22;4996;48.746;9.174;2023-04-07T04:53:58;8.40;99.90
9915;DHT22;4996;48.746;9.174;2023-04-07T04:56:25;8.40;99.90
9915;DHT22;4996;48.746;9.174;2023-04-07T04:58:50;8.40;99.90
9915;DHT22;4996;48.746;9.174;2023-04-07T05:01:16;8.50;99.90
9915;DHT22;4996;48.746;9.174;2023-04-07T05:03:41;8.50;99.90
9915;DHT22;4996;48.746;9.174;2023-04-07T05:06:07;8.40;99.90
9915;DHT22;4996;48.746;9.174;2023-04-07T05:08:32;8.40;99.90
9915;DHT22;4996;48.746;9.174;2023-04-07T05:10:58;8.50;99.90
9915;DHT22;4996;48.746;9.174;2023-04-07T05:13:23;8.40;99.90
9915;DHT22;4996;48.746;9.174;2023-04-07T05:15:50;8.40;99.90
9915;DHT22;4996;48.746;9.174;2023-04-07T05:18:16;8.50;99.90
9915;DHT22;4996;48.746;9.174;2023-04-07T05:20:43;8.40;99.90
9915;DHT22;4996;48.746;9.174;2023-04-07T05:23:09;8.50;99.90
9915;DHT22;4996;48.746;9.174;2023-04-07T05:25:34;8.50;99.90
9915;DHT22;4996;48.746;9.174;2023-04-07T05:28:01;8.40;99.90
9915;DHT22;4996;48.746;9.174;2023-04-07T05:30:26;8.40;99.90
9915;DHT22;4996;48.746;9.174;2023-04-07T05:32:52;8.50;99.90
9915;DHT22;4996;48.746;9.174;2023-04-07T05:35:18;8.50;99.90
9915;DHT22;4996;48.746;9.174;2023-04-07T05:37:43;8.40;99.90
9915;DHT22;4996;48.746;9.174;2023-04-07T05:40:09;8.50;99.90
9915;DHT22;4996;48.746;9.174;2023-04-07T05:42:35;8.50;99.90
9915;DHT22;4996;48.746;9.174;2023-04-07T05:45:01;8.50;99.90
9915;DHT22;4996;48.746;9.174;2023-04-07T05:47:26;8.60;99.90
9915;DHT22;4996;48.746;9.174;2023-04-07T05:49:52;8.60;99.90
9915;DHT22;4996;48.746;9.174;2023-04-07T05:52:17;8.70;99.90
9915;DHT22;4996;48.746;9.174;2023-04-07T05:54:43;8.70;99.90
9915;DHT22;4996;48.746;9.174;2023-04-07T05:57:08;8.60;99.90
9915;DHT22;4996;48.746;9.174;2023-04-07T05:59:34;8.60;99.90
9915;DHT22;4996;48.746;9.174;2023-04-07T06:02:01;8.60;99.90
9915;DHT22;4996;48.746;9.174;2023-04-07T06:04:27;8.60;99.90
9915;DHT22;4996;48.746;9.174;2023-04-07T06:06:52;8.60;99.90
9915;DHT22;4996;48.746;9.174;2023-04-07T06:09:20;8.70;99.90
9915;DHT22;4996;48.746;9.174;2023-04-07T06:11:45;8.80;99.90
9915;DHT22;4996;48.746;9.174;2023-04-07T06:14:11;8.80;99.90
9915;DHT22;4996;48.746;9.174;2023-04-07T06:16:37;8.80;99.90
9915;DHT22;4996;48.746;9.174;2023-04-07T06:19:02;8.80;99.90
9915;DHT22;4996;48.746;9.174;2023-04-07T06:21:28;8.90;99.90
9915;DHT22;4996;48.746;9.174;2023-04-07T06:23:53;8.90;99.90
9915;DHT22;4996;48.746;9.174;2023-04-07T06:26:19;9.00;99.90
9915;DHT22;4996;48.746;9.174;2023-04-07T06:28:46;9.10;99.90
9915;DHT22;4996;48.746;9.174;2023-04-07T06:31:11;9.10;99.90
9915;DHT22;4996;48.746;9.174;2023-04-07T06:33:37;9.10;99.90
9915;DHT22;4996;48.746;9.174;2023-04-07T06:36:02;9.10;99.90
9915;DHT22;4996;48.746;9.174;2023-04-07T06:38:28;9.10;99.90
9915;DHT22;4996;48.746;9.174;2023-04-07T06:40:53;9.10;99.90
9915;DHT22;4996;48.746;9.174;2023-04-07T06:43:19;9.20;99.90
9915;DHT22;4996;48.746;9.174;2023-04-07T06:45:45;9.20;99.90
9915;DHT22;4996;48.746;9.174;2023-04-07T06:48:10;9.30;99.90
9915;DHT22;4996;48.746;9.174;2023-04-07T06:50:36;9.30;99.90
9915;DHT22;4996;48.746;9.174;2023-04-07T06:53:03;9.40;99.90
9915;DHT22;4996;48.746;9.174;2023-04-07T06:55:29;9.40;99.90
9915;DHT22;4996;48.746;9.174;2023-04-07T06:57:54;9.50;99.90
9915;DHT22;4996;48.746;9.174;2023-04-07T07:00:20;9.40;99.90
9915;DHT22;4996;48.746;9.174;2023-04-07T07:02:47;9.40;99.90
9915;DHT22;4996;48.746;9.174;2023-04-07T07:05:13;9.40;99.90
9915;DHT22;4996;48.746;9.174;2023-04-07T07:07:39;9.40;99.90
9915;DHT22;4996;48.746;9.174;2023-04-07T07:10:08;9.50;99.90
9915;DHT22;4996;48.746;9.174;2023-04-07T07:12:34;9.50;99.90
9915;DHT22;4996;48.746;9.174;2023-04-07T07:15:00;9.50;99.90
9915;DHT22;4996;48.746;9.174;2023-04-07T07:17:26;9.40;99.90
9915;DHT22;4996;48.746;9.174;2023-04-07T07:19:51;9.40;99.90
9915;DHT22;4996;48.746;9.174;2023-04-07T07:22:17;9.40;99.90
9915;DHT22;4996;48.746;9.174;2023-04-07T07:24:42;9.40;99.90
9915;DHT22;4996;48.746;9.174;2023-04-07T07:27:08;9.50;99.90
9915;DHT22;4996;48.746;9.174;2023-04-07T07:29:33;9.50;99.90
9915;DHT22;4996;48.746;9.174;2023-04-07T07:31:59;9.60;99.90
9915;DHT22;4996;48.746;9.174;2023-04-07T07:34:24;9.60;99.90
9915;DHT22;4996;48.746;9.174;2023-04-07T07:36:50;9.80;99.90
9915;DHT22;4996;48.746;9.174;2023-04-07T07:39:16;9.90;99.90
9915;DHT22;4996;48.746;9.174;2023-04-07T07:41:41;10.00;99.90
9915;DHT22;4996;48.746;9.174;2023-04-07T07:44:07;10.10;99.90
9915;DHT22;4996;48.746;9.174;2023-04-07T07:46:32;10.00;99.90
9915;DHT22;4996;48.746;9.174;2023-04-07T07:48:58;10.10;99.90
9915;DHT22;4996;48.746;9.174;2023-04-07T07:51:23;10.10;99.90
9915;DHT22;4996;48.746;9.174;2023-04-07T07:53:49;10.20;99.90
9915;DHT22;4996;48.746;9.174;2023-04-07T07:56:15;10.30;99.90
9915;DHT22;4996;48.746;9.174;2023-04-07T07:58:40;10.30;99.90
9915;DHT22;4996;48.746;9.174;2023-04-07T08:01:06;10.50;99.90
9915;DHT22;4996;48.746;9.174;2023-04-07T08:03:31;10.50;99.90
9915;DHT22;4996;48.746;9.174;2023-04-07T08:05:57;10.50;99.90
9915;DHT22;4996;48.746;9.174;2023-04-07T08:08:23;10.40;99.90
9915;DHT22;4996;48.746;9.174;2023-04-07T08:10:48;10.60;99.90
9915;DHT22;4996;48.746;9.174;2023-04-07T08:13:14;10.60;99.90
9915;DHT22;4996;48.746;9.174;2023-04-07T08:15:39;10.90;99.90
9915;DHT22;4996;48.746;9.174;2023-04-07T08:18:05;11.30;99.90
9915;DHT22;4996;48.746;9.174;2023-04-07T08:20:32;11.30;99.90
9915;DHT22;4996;48.746;9.174;2023-04-07T08:22:58;11.60;99.90
9915;DHT22;4996;48.746;9.174;2023-04-07T08:25:25;12.00;99.90
9915;DHT22;4996;48.746;9.174;2023-04-07T08:27:50;12.00;99.90
9915;DHT22;4996;48.746;9.174;2023-04-07T08:30:16;12.20;99.90
9915;DHT22;4996;48.746;9.174;2023-04-07T08:32:43;12.20;99.90
9915;DHT22;4996;48.746;9.174;2023-04-07T08:35:09;12.00;99.90
9915;DHT22;4996;48.746;9.174;2023-04-07T08:37:36;11.80;99.90
9915;DHT22;4996;48.746;9.174;2023-04-07T08:40:02;11.80;99.90
9915;DHT22;4996;48.746;9.174;2023-04-07T08:42:30;11.80;99.90
9915;DHT22;4996;48.746;9.174;2023-04-07T08:44:57;11.80;99.90
9915;DHT22;4996;48.746;9.174;2023-04-07T08:47:24;11.70;99.90
9915;DHT22;4996;48.746;9.174;2023-04-07T08:49:52;11.70;99.90
9915;DHT22;4996;48.746;9.174;2023-04-07T08:52:21;11.90;99.90
9915;DHT22;4996;48.746;9.174;2023-04-07T08:54:48;12.20;99.90
9915;DHT22;4996;48.746;9.174;2023-04-07T08:57:14;12.20;99.90
9915;DHT22;4996;48.746;9.174;2023-04-07T08:59:41;12.30;99.90
9915;DHT22;4996;48.746;9.174;2023-04-07T09:02:09;12.60;99.90
9915;DHT22;4996;48.746;9.174;2023-04-07T09:04:35;12.60;99.90
9915;DHT22;4996;48.746;9.174;2023-04-07T09:07:01;13.00;99.90
9915;DHT22;4996;48.746;9.174;2023-04-07T09:09:27;13.10;99.90
9915;DHT22;4996;48.746;9.174;2023-04-07T09:11:53;13.20;99.90
9915;DHT22;4996;48.746;9.174;2023-04-07T09:14:20;13.40;99.90
9915;DHT22;4996;48.746;9.174;2023-04-07T09:16:46;14.00;99.90
9915;DHT22;4996;48.746;9.174;2023-04-07T09:19:11;14.50;99.90
9915;DHT22;4996;48.746;9.174;2023-04-07T09:21:51;14.90;99.90
9915;DHT22;4996;48.746;9.174;2023-04-07T09:26:46;15.20;99.90
9915;DHT22;4996;48.746;9.174;2023-04-07T09:29:18;15.10;99.90
9915;DHT22;4996;48.746;9.174;2023-04-07T09:31:44;15.00;99.90
9915;DHT22;4996;48.746;9.174;2023-04-07T09:36:52;14.10;99.90
9915;DHT22;4996;48.746;9.174;2023-04-07T09:39:18;14.10;99.90
9915;DHT22;4996;48.746;9.174;2023-04-07T09:41:44;14.30;99.90
9915;DHT22;4996;48.746;9.174;2023-04-07T09:44:09;14.10;99.90
9915;DHT22;4996;48.746;9.174;2023-04-07T09:46:47;14.30;99.90
9915;DHT22;4996;48.746;9.174;2023-04-07T09:49:13;14.50;99.90
9915;DHT22;4996;48.746;9.174;2023-04-07T09:51:55;14.40;99.90
9915;DHT22;4996;48.746;9.174;2023-04-07T09:54:35;14.50;99.90
9915;DHT22;4996;48.746;9.174;2023-04-07T09:57:02;14.70;99.90
9915;DHT22;4996;48.746;9.174;2023-04-07T09:59:29;15.10;99.90
9915;DHT22;4996;48.746;9.174;2023-04-07T10:01:55;15.40;99.90
9915;DHT22;4996;48.746;9.174;2023-04-07T10:04:22;15.80;99.90
9915;DHT22;4996;48.746;9.174;2023-04-07T10:06:48;16.20;99.90
9915;DHT22;4996;48.746;9.174;2023-04-07T10:09:15;16.50;99.90
9915;DHT22;4996;48.746;9.174;2023-04-07T10:11:42;16.50;99.90
9915;DHT22;4996;48.746;9.174;2023-04-07T10:14:11;16.50;99.90
9915;DHT22;4996;48.746;9.174;2023-04-07T10:16:37;15.80;99.90
9915;DHT22;4996;48.746;9.174;2023-04-07T10:19:04;15.20;99.90
9915;DHT22;4996;48.746;9.174;2023-04-07T10:21:33;15.30;99.90
9915;DHT22;4996;48.746;9.174;2023-04-07T10:27:00;14.10;99.90
9915;DHT22;4996;48.746;9.174;2023-04-07T10:29:31;13.50;99.90
9915;DHT22;4996;48.746;9.174;2023-04-07T10:32:00;13.20;99.90
9915;DHT22;4996;48.746;9.174;2023-04-07T10:37:21;12.90;99.90
9915;DHT22;4996;48.746;9.174;2023-04-07T10:39:48;12.50;99.90
9915;DHT22;4996;48.746;9.174;2023-04-07T10:45:01;12.60;99.90
9915;DHT22;4996;48.746;9.174;2023-04-07T10:47:28;12.60;99.90
9915;DHT22;4996;48.746;9.174;2023-04-07T10:52:40;12.50;99.90
9915;DHT22;4996;48.746;9.174;2023-04-07T11:03:31;12.80;99.90
9915;DHT22;4996;48.746;9.174;2023-04-07T11:08:38;12.80;99.90
9915;DHT22;4996;48.746;9.174;2023-04-07T11:11:06;12.90;99.90
9915;DHT22;4996;48.746;9.174;2023-04-07T11:13:47;13.00;99.90
9915;DHT22;4996;48.746;9.174;2023-04-07T11:16:14;13.10;99.90
9915;DHT22;4996;48.746;9.174;2023-04-07T11:18:41;13.10;99.90
9915;DHT22;4996;48.746;9.174;2023-04-07T11:21:08;13.30;99.90
9915;DHT22;4996;48.746;9.174;2023-04-07T11:23:41;13.30;99.90
9915;DHT22;4996;48.746;9.174;2023-04-07T11:26:08;13.40;99.90
9915;DHT22;4996;48.746;9.174;2023-04-07T11:28:43;13.40;99.90
9915;DHT22;4996;48.746;9.174;2023-04-07T11:31:10;13.30;99.90
9915;DHT22;4996;48.746;9.174;2023-04-07T11:33:36;13.50;99.90
9915;DHT22;4996;48.746;9.174;2023-04-07T11:36:04;13.30;99.90
9915;DHT22;4996;48.746;9.174;2023-04-07T11:38:35;13.20;99.90
9915;DHT22;4996;48.746;9.174;2023-04-07T11:41:13;13.30;99.90
9915;DHT22;4996;48.746;9.174;2023-04-07T11:43:38;13.10;99.90
9915;DHT22;4996;48.746;9.174;2023-04-07T11:46:10;13.00;99.90
9915;DHT22;4996;48.746;9.174;2023-04-07T11:48:37;13.00;99.90
9915;DHT22;4996;48.746;9.174;2023-04-07T11:51:03;13.10;99.90
9915;DHT22;4996;48.746;9.174;2023-04-07T11:53:33;13.10;99.90
9915;DHT22;4996;48.746;9.174;2023-04-07T11:56:04;13.00;99.90
9915;DHT22;4996;48.746;9.174;2023-04-07T11:58:30;12.90;99.90
9915;DHT22;4996;48.746;9.174;2023-04-07T12:01:01;12.80;99.90
9915;DHT22;4996;48.746;9.174;2023-04-07T12:03:30;12.60;99.90
9915;DHT22;4996;48.746;9.174;2023-04-07T12:05:56;12.00;99.90
9915;DHT22;4996;48.746;9.174;2023-04-07T12:08:36;12.00;99.90
9915;DHT22;4996;48.746;9.174;2023-04-07T12:11:03;11.90;99.90
9915;DHT22;4996;48.746;9.174;2023-04-07T12:13:29;11.90;99.90
9915;DHT22;4996;48.746;9.174;2023-04-07T12:15:54;11.90;99.90
9915;DHT22;4996;48.746;9.174;2023-04-07T12:18:20;11.80;99.90
9915;DHT22;4996;48.746;9.174;2023-04-07T12:20:46;11.70;99.90
9915;DHT22;4996;48.746;9.174;2023-04-07T12:23:11;11.60;99.90
9915;DHT22;4996;48.746;9.174;2023-04-07T12:25:37;11.40;99.90
9915;DHT22;4996;48.746;9.174;2023-04-07T12:28:02;11.50;99.90
9915;DHT22;4996;48.746;9.174;2023-04-07T12:30:28;11.60;99.90
9915;DHT22;4996;48.746;9.174;2023-04-07T12:32:53;11.50;99.90
9915;DHT22;4996;48.746;9.174;2023-04-07T12:35:19;11.40;99.90
9915;DHT22;4996;48.746;9.174;2023-04-07T12:37:44;11.20;99.90
9915;DHT22;4996;48.746;9.174;2023-04-07T12:40:11;11.30;99.90
9915;DHT22;4996;48.746;9.174;2023-04-07T12:42:37;11.30;99.90
9915;DHT22;4996;48.746;9.174;2023-04-07T12:45:02;11.30;99.90
9915;DHT22;4996;48.746;9.174;2023-04-07T12:47:28;11.10;99.90
9915;DHT22;4996;48.746;9.174;2023-04-07T12:49:53;11.10;99.90
9915;DHT22;4996;48.746;9.174;2023-04-07T12:52:19;11.20;99.90
9915;DHT22;4996;48.746;9.174;2023-04-07T12:54:45;11.30;99.90
9915;DHT22;4996;48.746;9.174;2023-04-07T12:57:11;11.40;99.90
9915;DHT22;4996;48.746;9.174;2023-04-07T12:59:37;11.50;99.90
9915;DHT22;4996;48.746;9.174;2023-04-07T13:02:02;11.50;99.90
9915;DHT22;4996;48.746;9.174;2023-04-07T13:04:28;11.60;99.90
9915;DHT22;4996;48.746;9.174;2023-04-07T13:06:55;11.70;99.90
9915;DHT22;4996;48.746;9.174;2023-04-07T13:09:20;11.80;99.90
9915;DHT22;4996;48.746;9.174;2023-04-07T13:11:46;11.70;99.90
9915;DHT22;4996;48.746;9.174;2023-04-07T13:14:11;11.90;99.90
9915;DHT22;4996;48.746;9.174;2023-04-07T13:16:37;12.00;99.90
9915;DHT22;4996;48.746;9.174;2023-04-07T13:19:03;12.10;99.90
9915;DHT22;4996;48.746;9.174;2023-04-07T13:21:28;12.20;99.90
9915;DHT22;4996;48.746;9.174;2023-04-07T13:23:54;12.20;99.90
9915;DHT22;4996;48.746;9.174;2023-04-07T13:26:19;12.20;99.90
9915;DHT22;4996;48.746;9.174;2023-04-07T13:28:45;12.20;99.90
9915;DHT22;4996;48.746;9.174;2023-04-07T13:31:12;12.20;99.90
9915;DHT22;4996;48.746;9.174;2023-04-07T13:33:40;12.30;99.90
9915;DHT22;4996;48.746;9.174;2023-04-07T13:36:05;12.30;99.90
9915;DHT22;4996;48.746;9.174;2023-04-07T13:38:32;12.30;99.90
9915;DHT22;4996;48.746;9.174;2023-04-07T13:40:57;12.30;99.90
9915;DHT22;4996;48.746;9.174;2023-04-07T13:43:23;12.40;99.90
9915;DHT22;4996;48.746;9.174;2023-04-07T13:45:48;12.50;99.90
9915;DHT22;4996;48.746;9.174;2023-04-07T13:48:14;12.50;99.90
9915;DHT22;4996;48.746;9.174;2023-04-07T13:50:40;12.40;99.90
9915;DHT22;4996;48.746;9.174;2023-04-07T13:53:05;12.50;99.90
9915;DHT22;4996;48.746;9.174;2023-04-07T13:55:31;12.40;99.90
9915;DHT22;4996;48.746;9.174;2023-04-07T13:57:57;12.40;99.90
9915;DHT22;4996;48.746;9.174;2023-04-07T14:00:22;12.50;99.90
9915;DHT22;4996;48.746;9.174;2023-04-07T14:02:48;12.50;99.90
9915;DHT22;4996;48.746;9.174;2023-04-07T14:05:13;12.50;99.90
9915;DHT22;4996;48.746;9.174;2023-04-07T14:07:39;12.40;99.90
9915;DHT22;4996;48.746;9.174;2023-04-07T14:10:05;12.40;99.90
9915;DHT22;4996;48.746;9.174;2023-04-07T14:12:30;12.40;99.90
9915;DHT22;4996;48.746;9.174;2023-04-07T14:14:56;12.50;99.90
9915;DHT22;4996;48.746;9.174;2023-04-07T14:17:22;12.50;99.90
9915;DHT22;4996;48.746;9.174;2023-04-07T14:19:47;12.60;99.90
9915;DHT22;4996;48.746;9.174;2023-04-07T14:22:13;12.70;99.90
9915;DHT22;4996;48.746;9.174;2023-04-07T14:24:39;12.70;99.90
9915;DHT22;4996;48.746;9.174;2023-04-07T14:27:05;12.60;99.90
9915;DHT22;4996;48.746;9.174;2023-04-07T14:29:31;12.70;99.90
9915;DHT22;4996;48.746;9.174;2023-04-07T14:31:56;12.80;99.90
9915;DHT22;4996;48.746;9.174;2023-04-07T14:34:22;12.70;99.90
9915;DHT22;4996;48.746;9.174;2023-04-07T14:36:55;12.80;99.90
9915;DHT22;4996;48.746;9.174;2023-04-07T14:39:22;12.80;99.90
9915;DHT22;4996;48.746;9.174;2023-04-07T14:41:47;12.90;99.90
9915;DHT22;4996;48.746;9.174;2023-04-07T14:44:13;13.00;99.90
9915;DHT22;4996;48.746;9.174;2023-04-07T14:46:38;13.00;99.90
9915;DHT22;4996;48.746;9.174;2023-04-07T14:49:04;13.10;99.90
9915;DHT22;4996;48.746;9.174;2023-04-07T14:51:29;13.10;99.90
9915;DHT22;4996;48.746;9.174;2023-04-07T14:53:55;13.10;99.90
9915;DHT22;4996;48.746;9.174;2023-04-07T14:56:22;13.30;99.90
9915;DHT22;4996;48.746;9.174;2023-04-07T14:58:49;13.30;99.90
9915;DHT22;4996;48.746;9.174;2023-04-07T15:01:15;13.20;99.90
9915;DHT22;4996;48.746;9.174;2023-04-07T15:03:40;13.10;99.90
9915;DHT22;4996;48.746;9.174;2023-04-07T15:06:10;13.10;99.90
9915;DHT22;4996;48.746;9.174;2023-04-07T15:08:37;13.10;99.90
9915;DHT22;4996;48.746;9.174;2023-04-07T15:11:04;13.10;99.90
9915;DHT22;4996;48.746;9.174;2023-04-07T15:13:30;13.10;99.90
9915;DHT22;4996;48.746;9.174;2023-04-07T15:15:55;13.00;99.90
9915;DHT22;4996;48.746;9.174;2023-04-07T15:18:21;13.00;99.90
9915;DHT22;4996;48.746;9.174;2023-04-07T15:20:46;13.00;99.90
9915;DHT22;4996;48.746;9.174;2023-04-07T15:23:12;12.80;99.90
9915;DHT22;4996;48.746;9.174;2023-04-07T15:25:39;12.70;99.90
9915;DHT22;4996;48.746;9.174;2023-04-07T15:28:05;12.80;99.90
9915;DHT22;4996;48.746;9.174;2023-04-07T15:30:30;12.70;99.90
9915;DHT22;4996;48.746;9.174;2023-04-07T15:33:02;12.70;99.90
9915;DHT22;4996;48.746;9.174;2023-04-07T15:35:28;12.80;99.90
9915;DHT22;4996;48.746;9.174;2023-04-07T15:37:54;12.90;99.90
9915;DHT22;4996;48.746;9.174;2023-04-07T15:40:19;12.70;99.90
9915;DHT22;4996;48.746;9.174;2023-04-07T15:42:45;12.80;99.90
9915;DHT22;4996;48.746;9.174;2023-04-07T15:45:10;12.90;99.90
9915;DHT22;4996;48.746;9.174;2023-04-07T15:47:36;12.90;99.90
9915;DHT22;4996;48.746;9.174;2023-04-07T15:50:02;13.30;99.90
9915;DHT22;4996;48.746;9.174;2023-04-07T15:52:28;12.70;99.90
9915;DHT22;4996;48.746;9.174;2023-04-07T15:54:54;13.00;99.90
9915;DHT22;4996;48.746;9.174;2023-04-07T15:57:19;13.00;99.90
9915;DHT22;4996;48.746;9.174;2023-04-07T15:59:46;13.10;99.90
9915;DHT22;4996;48.746;9.174;2023-04-07T16:02:12;13.20;99.90
9915;DHT22;4996;48.746;9.174;2023-04-07T16:04:37;13.10;99.90
9915;DHT22;4996;48.746;9.174;2023-04-07T16:07:03;13.10;99.90
9915;DHT22;4996;48.746;9.174;2023-04-07T16:09:29;13.00;99.90
9915;DHT22;4996;48.746;9.174;2023-04-07T16:11:54;13.00;99.90
9915;DHT22;4996;48.746;9.174;2023-04-07T16:14:20;13.10;99.90
9915;DHT22;4996;48.746;9.174;2023-04-07T16:16:45;13.20;99.90
9915;DHT22;4996;48.746;9.174;2023-04-07T16:19:11;13.30;99.90
9915;DHT22;4996;48.746;9.174;2023-04-07T16:21:38;13.30;99.90
9915;DHT22;4996;48.746;9.174;2023-04-07T16:24:04;13.30;99.90
9915;DHT22;4996;48.746;9.174;2023-04-07T16:26:30;13.30;99.90
9915;DHT22;4996;48.746;9.174;2023-04-07T16:28:56;13.40;99.90
9915;DHT22;4996;48.746;9.174;2023-04-07T16:31:21;13.40;99.90
9915;DHT22;4996;48.746;9.174;2023-04-07T16:33:49;13.40;99.90
9915;DHT22;4996;48.746;9.174;2023-04-07T16:36:14;13.20;99.90
9915;DHT22;4996;48.746;9.174;2023-04-07T16:38:40;13.20;99.90
9915;DHT22;4996;48.746;9.174;2023-04-07T16:41:08;13.20;99.90